This is the latest recevied weather packets stored in our database for station/object BMCB-9. If no packets are shown the sender has not sent any weather packets the latest 10 day(s).
| Time | Temp. | Humidity | Pressure | Rain* | Wind** | Luminosity | Snow |
|---|---|---|---|---|---|---|---|
| 1777453257 | 14.44° C | 42% | 1022.7 hPa | 0 mm | - | 72 W/m² | - |
| 1777452658 | 13.89° C | 43% | 1022.8 hPa | 0 mm | - | 54 W/m² | - |
| 1777449055 | 11.67° C | 47% | 1022.8 hPa | 0 mm | - | 56 W/m² | - |
| 1777434056 | 8.33° C | 61% | 1022.1 hPa | 0 mm | - | 0 W/m² | - |
| 1777426258 | 8.89° C | 68% | 1021.4 hPa | 0 mm | - | 0 W/m² | - |
| 1777420257 | 11.67° C | 58% | 1021.4 hPa | 0 mm | - | 0 W/m² | - |
| 1777416057 | 12.78° C | 55% | 1020.8 hPa | 0 mm | - | 0 W/m² | - |
| 1777411857 | 13.89° C | 50% | 1020.6 hPa | 0 mm | - | 0 W/m² | - |
| 1777405259 | 16.67° C | 42% | 1019.5 hPa | 0 mm | - | 0 W/m² | - |
| 1777402857 | 17.22° C | 41% | 1018.8 hPa | 0 mm | - | 0 W/m² | - |
| 1777395656 | 20° C | 38% | 1017.6 hPa | 0 mm | - | 48 W/m² | - |
| 1777395057 | 20° C | 38% | 1017.6 hPa | 0 mm | - | 88 W/m² | - |
| 1777394456 | 20° C | 38% | 1017.5 hPa | 0 mm | - | 116 W/m² | - |
| 1777383048 | 19.44° C | 41% | 1018.2 hPa | 0 mm | - | 292 W/m² | - |
| 1777381854 | 18.89° C | 42% | 1018.4 hPa | 0 mm | - | 314 W/m² | - |
| 1777372857 | 16.67° C | 45% | 1019.2 hPa | 0 mm | - | 172 W/m² | - |
| 1777372259 | 16.67° C | 46% | 1019.2 hPa | 0 mm | - | 78 W/m² | - |
| 1777370456 | 15.56° C | 52% | 1019.4 hPa | 0 mm | - | 110 W/m² | - |
| 1777367455 | 12.78° C | 59% | 1019.9 hPa | 0 mm | - | 260 W/m² | - |
| 1777364454 | 11.67° C | 62% | 1019.9 hPa | 0 mm | - | 104 W/m² | - |
| 1777356655 | 9.44° C | 66% | 1019.7 hPa | 0 mm | - | 46 W/m² | - |
| 1777356055 | 8.89° C | 66% | 1019.7 hPa | 0 mm | - | 48 W/m² | - |
| 1777347656 | 8.33° C | 68% | 1019.6 hPa | 0 mm | - | 0 W/m² | - |
| 1777338657 | 7.22° C | 83% | 1020.2 hPa | 0 mm | - | 0 W/m² | - |
| 1777337456 | 6.67° C | 82% | 1020.1 hPa | 0 mm | - | 0 W/m² | - |
* Rain latest hour (hover to see other rain measurements)
** Current wind speed in m/s (hover to see current wind gust speed)